Tiempo atmosférico en la estación meteorológica de Albacete, Albacete (674 m.)



Fecha
DESCASC
Temp. máxima en grados centígrados (hora)
DESCASC
Temp. mínima en grados centígrados (hora)
DESCASC
Temp. media en grados centígrados
DESCASC
Racha de viento máxima en m/sg (hora)
DESCASC
Velocidad máxima media en intervalos de 10 minutos(hora)
DESCASC
Precipitaciones diarias en mm
DESCASC
Precipitaciones de 00:00 a 06:00 en mm
DESCASC
Precipitaciones de 06:00 a 12:00 en mm
DESCASC
Precipitaciones de 12:00 a 18:00 en mm
DESCASC
Precipitaciones de 18:00 a 24:00 en mm
DESCASC
23-05-2018 27.8 (16:00) 12.8 (06:30) 20.3 8.89 (17:40) 3.33 (18:00) 0 0 0 0 0
22-05-2018 26.3 (16:50) 9.9 (05:50) 18.1 8.89 (22:20) 3.33 (22:30) 0 0 0 0 0
21-05-2018 23.2 (14:50) 10.2 (07:10) 16.7 8.61 (15:10) 4.72 (15:10) 0 0 0 0 0
20-05-2018 23.8 (15:50) 11.4 (00:00) 17.6 7.22 (16:30) 3.33 (19:30) 0 0 0 0 0
19-05-2018 24 (17:50) 10.4 (00:00) 17.2 6.67 (14:20) 2.22 (16:50) 0 0 0 0 0
18-05-2018 24 (16:40) 9.8 (00:00) 16.9 7.22 (19:10) 2.5 (01:40) 7.2 0 0 0 7.2
17-05-2018 23.8 (16:40) 7.6 (00:00) 15.7 8.06 (13:50) 3.06 (14:00) 0 0 0 0 0
16-05-2018 24.7 (16:50) 8.5 (00:00) 16.6 7.22 (19:40) 2.78 (15:00) 0 0 0 0 0
15-05-2018 22.3 (18:10) 6.7 (00:00) 14.5 6.67 (22:20) 2.5 (22:20) 0 0 0 0 0
14-05-2018 22 (17:20) 6.7 (00:00) 14.3 10.28 (17:00) 2.78 (14:10) 0 0 0 0 0
13-05-2018 18.2 (18:30) 5.7 (00:00) 12 11.11 (16:20) 4.17 (16:30) 0 0 0 0 0
12-05-2018 22 (16:30) 12.9 (00:00) 17.4 10.56 (14:30) 5 (23:30) 0 0 0 0 0
11-05-2018 25.7 (17:40) 11 (03:20) 18.4 5.83 (16:50) 2.5 (21:10) 0.1 0 0 0.1 0
10-05-2018 25 (16:00) 13.1 (00:00) 19.1 16.11 (17:20) 3.89 (18:30) 9 0 0 0 9
09-05-2018 26.7 (15:50) 10.9 (00:00) 18.8 11.39 (18:40) 4.72 (18:40) 0 0 0 0 0
08-05-2018 25.1 (15:10) 12.9 (00:00) 19 10 (15:50) 2.22 (15:30) 0 0 0 0 0
07-05-2018 24.1 (16:40) 10.3 (00:00) 17.2 7.22 (14:20) 2.22 (23:59) 0.1 0.1 0 0 0
06-05-2018 21.3 (14:30) 8.8 (00:00) 15 8.33 (15:50) 2.5 (19:00) 2.1 0.3 0 1.8 0
05-05-2018 23.2 (17:40) 11.6 (00:00) 17.4 8.06 (19:30) 3.61 (19:30) 0.1 0 0 0 0.1
04-05-2018 21.6 (17:40) 5.1 (00:00) 13.4 7.5 (22:40) 3.33 (21:30) 0 0 0 0 0
03-05-2018 21.1 (17:30) 7.8 (00:00) 14.5 10.28 (19:00) 3.33 (09:50) 0 0 0 0 0
02-05-2018 -- (--) -- (--) -- -- (--) -- (--) -- -- 0 0 0
01-05-2018 -- (--) -- (--) -- -- (--) -- (--) -- 0 0 0 --
30-04-2018 14.5 (16:10) 6.4 (00:00) 10.5 9.17 (16:10) 3.33 (16:00) 1.2 0 0 0 1.2
29-04-2018 13.7 (00:10) 7 (00:00) 10.3 19.72 (13:50) 8.33 (11:10) 1.4 0 0 0 1.4
28-04-2018 23.9 (17:10) 11.8 (00:00) 17.8 13.61 (19:10) 5.83 (19:20) 1.4 0 0 0 1.4
27-04-2018 25.9 (16:10) 13.4 (00:00) 19.6 9.17 (17:00) 4.44 (16:40) 0 0 0 0 0
26-04-2018 24.7 (17:20) 9.7 (00:00) 17.2 7.22 (22:10) 2.22 (21:10) 0 0 0 0 0
25-04-2018 23.5 (16:50) 10.3 (00:00) 16.9 8.61 (17:30) 4.17 (17:20) 0 0 0 0 0
24-04-2018 24.5 (15:30) 11.3 (00:00) 17.9 9.44 (18:50) 3.61 (15:10) 0 0 0 0 0

Gráficas

Temp. máximas Temp. mínimas Temp. medias Precipitaciones Rachas de viento máximas Velocidades máximas media en intervalos de 10 minutos

Datos horarios

Fecha y hora oficial Temperatura (ºC) Velocidad del viento (km/h) Dirección del viento Racha (km/h) Dirección de racha Precipitación (mm) Presión (hPa) Tendencia (hPa) Humedad (%)
2018-05-23 23:00:00 19.5 4 Sur 18 Sudeste 0 938.9 0.2 46
2018-05-23 22:00:00 20.3 5 Sudeste 18 Sudeste 0 938.5 0.5 46
2018-05-23 21:00:00 20.8 6 Sudeste 17 Sudeste 0 938.6 0.2 48
2018-05-23 20:00:00 20.9 5 Sur 21 Sudoeste 0 938.7 0.7 49
2018-05-23 19:00:00 21.3 5 Sur 31 Oeste 0 938 0 46
2018-05-23 18:00:00 23.3 12 Sur 32 Sur 0 938.4 -0.2 34
2018-05-23 17:00:00 25.8 7 Sur 26 Sur 0 938 -0.8 23
2018-05-23 16:00:00 27.4 6 Sur 27 Sur 0 938 -1.6 23
2018-05-23 15:00:00 26.4 6 Sur 25 Sudeste 0 938.6 -1.2 25
2018-05-23 14:00:00 26 6 Sudeste 24 Este 0 938.8 -0.9 27
2018-05-23 13:00:00 24.2 6 Sur 26 Este 0 939.6 0 29
2018-05-23 12:00:00 22.3 8 Sudeste 22 Sudeste 0 939.8 0.5 36
2018-05-23 11:00:00 20.4 6 Sudeste 18 Sudeste 0 939.7 0.6 47
2018-05-23 10:00:00 18.4 5 Sudeste 17 Sudeste 0 939.6 1 53
2018-05-23 09:00:00 16.1 4 Sudeste 17 Sudeste 0 939.3 0.9 62
2018-05-23 08:00:00 14.8 6 Sudeste 19 Sudeste 0 939.1 0.7 66
2018-05-23 07:00:00 13.3 3 Sudeste 11 Sudeste 0 938.6 0.2 76
2018-05-23 06:00:00 13.1 0 Calma 6 Este 0 938.4 -0.2 87
2018-05-23 05:00:00 13.9 2 Este 6 Este 0 938.4 -0.3 80
2018-05-23 04:00:00 15.3 0 Calma 8 Este 0 938.4 -0.2 68
2018-05-23 03:00:00 16.5 0 Calma 18 Sudeste 0 938.6 -0.2 61
2018-05-23 02:00:00 17.2 8 Sudeste 22 Sudeste 0 938.7 0.2 60
2018-05-23 01:00:00 18 9 Sudeste 22 Sudeste 0 938.6 1.1 59
2018-05-23 00:00:00 18.4 5 Sudeste 19 Sudeste 0 938.8 2.1 59
2018-05-22 23:00:00 18.8 5 Sudeste 32 Sur 0 938.5 2.3 59
2018-05-22 22:00:00 19.5 8 Sudeste 24 Sudeste 0 937.5 1.6 55
2018-05-22 21:00:00 21.4 6 Sudeste 17 Sudeste 0 936.7 0.6 44
2018-05-22 20:00:00 24.4 0 Calma 12 Sudoeste 0 936.2 0.2 34
2018-05-22 19:00:00 24.2 4 Sudoeste 15 Sur 0 935.9 -0.7 34
2018-05-22 18:00:00 24 4 Oeste 17 Noroeste 0 936.1 -0.8 33
2018-05-22 17:00:00 26 3 Noroeste 22 Sudoeste 0 936 -1.2 31
2018-05-22 16:00:00 24.7 5 Sudoeste 22 Oeste 0 936.6 -0.9 34
2018-05-22 15:00:00 24 5 Oeste 17 Oeste 0 936.9 -0.9 36
2018-05-22 14:00:00 22.3 2 Norte 17 Nordeste 0 937.2 -0.5 43
2018-05-22 13:00:00 21.2 4 Oeste 17 Sudoeste 0 937.5 -0.2 49
2018-05-22 12:00:00 18.9 3 Oeste 14 Oeste 0 937.8 0.4 59
2018-05-22 11:00:00 16.5 5 Oeste 13 Oeste 0 937.7 0.5 70
2018-05-22 10:00:00 14.7 4 Noroeste 13 Oeste 0 937.7 1.3 78
2018-05-22 09:00:00 12.4 3 Este 7 Nordeste 0 937.4 1.4 88
2018-05-22 08:00:00 10.9 0 Calma 0 Calma 0 937.2 1.1 92
2018-05-22 07:00:00 10.2 0 Calma -- -- 0 936.4 0.3 93
2018-05-22 06:00:00 10 0 Calma 0 Calma 0 936 -0.3 91
2018-05-22 05:00:00 10.6 0 Calma -- -- 0 936.1 -0.2 90
2018-05-22 04:00:00 11.2 0 Calma -- -- 0 936.1 -0.3 87
2018-05-22 03:00:00 12 0 Calma -- -- 0 936.3 0.1 83
2018-05-22 02:00:00 12.8 0 Calma 15 Oeste 0 936.3 0.2 78
2018-05-22 01:00:00 13.4 4 Oeste 16 Oeste 0 936.4 0.6 76
2018-05-22 00:00:00 14.4 4 Oeste 16 Sudoeste 0 936.2 0.6 73
2018-05-21 23:00:00 15 4 Sudoeste 12 Sur 0 936.1 1.2 74
2018-05-21 22:00:00 15.8 5 Sudeste 17 Este 0 935.8 1.4 67
2018-05-21 21:00:00 17.2 4 Este 20 Este 0 935.6 2.4 60
2018-05-21 20:00:00 18.1 9 Este 25 Este 0 934.9 1.8 56
2018-05-21 19:00:00 18.9 8 Nordeste 23 Este 0 934.4 0.9 47
2018-05-21 18:00:00 21.7 6 Oeste 17 Oeste 0 933.2 -0.3 35
2018-05-21 17:00:00 21.1 6 Oeste 22 Sur 0 933.1 -1 36
2018-05-21 16:00:00 21.1 9 Oeste 31 Noroeste 0 933.5 -1.1 37
2018-05-21 15:00:00 22.7 7 Oeste 27 Oeste 0 933.5 -1.6 33
2018-05-21 14:00:00 22.4 4 Noroeste 14 Oeste 0 934.1 -1.2 35
2018-05-21 13:00:00 21.1 3 Oeste 11 Oeste 0 934.6 -0.9 42
2018-05-21 12:00:00 18.8 3 Noroeste 10 Oeste 0 935.1 -0.3 52
2018-05-21 11:00:00 16.2 0 Calma 9 Nordeste 0 935.3 -0.3 66
2018-05-21 10:00:00 14.6 0 Calma 6 Este 0 935.5 0.4 75
2018-05-21 09:00:00 12.3 0 Calma 5 Oeste 0 935.4 0.1 86
2018-05-21 08:00:00 10.5 0 Calma 3 Nordeste 0 935.6 0.3 92
2018-05-21 07:00:00 10.4 0 Calma 5 Este 0 935.1 -0.3 90
2018-05-21 06:00:00 11.4 0 Calma 5 Nordeste 0 935.3 -0.2 87
2018-05-21 05:00:00 12 0 Calma 4 Este 0 935.3 -0.9 83
2018-05-21 04:00:00 13.4 0 Calma 7 Sur 0 935.4 -1.1 77
2018-05-21 03:00:00 14.1 2 Sudeste 8 Sudeste 0 935.5 -1.1 74
2018-05-21 02:00:00 14.7 2 Este 8 Este 0 936.2 0 72
2018-05-21 01:00:00 15 4 Este 11 Sur 0 936.5 1 69
2018-05-21 00:00:00 15.6 4 Sudeste 19 Sudeste 0 936.6 2 66
2018-05-20 23:00:00 16.6 9 Sudeste 24 Sudeste 0 936.2 1.9 58
2018-05-20 22:00:00 18.2 6 Sudeste 21 Sudeste 0 935.5 1.6 47
2018-05-20 21:00:00 19 5 Sudeste 19 Sudeste 0 934.6 0.6 44
2018-05-20 20:00:00 19.9 9 Sudeste 25 Sudeste 0 934.3 0.1 41
2018-05-20 19:00:00 21.6 4 Sudoeste 16 Sudoeste 0 933.9 -0.9 34
2018-05-20 18:00:00 21.7 6 Sudeste 20 Este 0 934 -1.6 34
2018-05-20 17:00:00 22.4 8 Este 26 Nordeste 0 934.2 -1.9 33
2018-05-20 16:00:00 23.3 5 Este 19 Nordeste 0 934.8 -2.4 32
2018-05-20 15:00:00 22.8 5 Este 20 Este 0 935.6 -2 33
2018-05-20 14:00:00 21.9 0 Calma 15 Este 0 936.1 -1.7 36
2018-05-20 13:00:00 20.4 3 Nordeste 13 Este 0 937.2 -0.7 42
2018-05-20 12:00:00 18.5 5 Este 16 Este 0 937.6 -0.4 48
2018-05-20 11:00:00 16.6 3 Este 14 Este 0 937.8 -0.3 59
2018-05-20 10:00:00 14.7 2 Nordeste 10 Norte 0 937.9 0.2 62
2018-05-20 09:00:00 13.6 3 Norte 9 Nordeste 0 938 0.4 68
2018-05-20 08:00:00 12.1 3 Oeste 8 Oeste 0 938.1 0.5 75
2018-05-20 07:00:00 11.4 0 Calma 6 Nordeste 0 937.7 -0.1 71
2018-05-20 06:00:00 12.2 0 Calma 4 Nordeste 0 937.6 -0.8 70
2018-05-20 05:00:00 12.7 0 Calma 4 Este 0 937.6 -1.1 66
2018-05-20 04:00:00 13.3 3 Este 7 Este 0 937.8 -1.1 59
2018-05-20 03:00:00 13.7 0 Calma 6 Sudeste 0 938.4 -0.4 57
2018-05-20 02:00:00 13.4 2 Este 6 Este 0 938.7 0.5 57
2018-05-20 01:00:00 13.4 4 Este 8 Nordeste 0 938.9 1.1 54
2018-05-20 00:00:00 15.3 3 Nordeste 18 Sudeste 0 938.8 1.7 45
2018-05-19 23:00:00 15.7 4 Este 10 Sudeste 0 938.2 1.6 44
2018-05-19 22:00:00 17.8 4 Este 12 Este 0 937.8 1.4 39
2018-05-19 21:00:00 20.8 4 Este 16 Este 0 937.1 0.6 30
2018-05-19 20:00:00 22.6 6 Este 16 Este 0 936.6 -0.4 27
2018-05-19 19:00:00 23.3 5 Este 21 Nordeste 0 936.4 -1.1 28
2018-05-19 18:00:00 23 8 Este 20 Este 0 936.5 -1.5 30
2018-05-19 17:00:00 23.8 3 Nordeste 21 Este 0 937 -1.8 32
2018-05-19 16:00:00 23.4 7 Este 22 Este 0 937.5 -1.8 32
2018-05-19 15:00:00 22.8 7 Nordeste 24 Nordeste 0 938 -1.8 33
2018-05-19 14:00:00 21.3 6 Nordeste 22 Este 0 938.8 -1 39
2018-05-19 13:00:00 19.7 3 Nordeste 18 Este 0 939.3 -0.4 46
2018-05-19 12:00:00 17.6 6 Este 18 Este 0 939.8 0.4 58
2018-05-19 11:00:00 15.3 4 Nordeste 10 Nordeste 0 939.8 0.5 73
2018-05-19 10:00:00 13.5 3 Nordeste 9 Este 0 939.7 0.7 80
2018-05-19 09:00:00 11.9 3 Este 6 Este 0 939.4 0.7 93
2018-05-19 08:00:00 11 0 Calma 4 Este 0 939.3 0.3 95
2018-05-19 07:00:00 10.8 0 Calma -- -- 0 939 0 95
2018-05-19 06:00:00 10.5 0 Calma 6 Este 0 938.7 -0.6 95
2018-05-19 05:00:00 11 0 Calma 6 Este 0 939 -0.5 93
2018-05-19 04:00:00 11.4 0 Calma 5 Este 0 939 -0.4 92
2018-05-19 03:00:00 12.1 0 Calma 6 Este 0 939.3 0 87
2018-05-19 02:00:00 12.9 0 Calma 11 Sudeste 0 939.5 0.2 84
2018-05-19 01:00:00 13.5 0 Calma 12 Sudeste 0 939.4 0.5 84
2018-05-19 00:00:00 13.4 2 Este 10 Este 0 939.3 0.9 93
2018-05-18 23:00:00 13.5 0 Calma 13 Nordeste 1.1 939.3 1.3 95
2018-05-18 22:00:00 13.8 4 Nordeste 17 Norte 0.6 938.9 2 91
2018-05-18 21:00:00 14.7 5 Este 19 Nordeste 0.5 938.4 1.8 83
2018-05-18 20:00:00 15.2 6 Nordeste 26 Este 5 938 1.3 83
2018-05-18 19:00:00 21.4 8 Este 23 Este 0 936.9 -0.3 39
2018-05-18 18:00:00 22.8 2 Sudeste 18 Sur 0 936.6 -0.9 32
2018-05-18 17:00:00 23.4 4 Sur 19 Sudeste 0 936.7 -1.3 31
2018-05-18 16:00:00 22.4 4 Este 20 Sudeste 0 937.2 -1.7 34
2018-05-18 15:00:00 22.2 7 Sudeste 19 Sudeste 0 937.5 -1.4 34
2018-05-18 14:00:00 22 6 Sudeste 22 Sudeste 0 938 -1 36
2018-05-18 13:00:00 21.3 3 Sudeste 17 Nordeste 0 938.9 -0.2 38
2018-05-18 12:00:00 19.5 4 Sudeste 17 Sudoeste 0 938.9 0 46
2018-05-18 11:00:00 17.1 5 Nordeste 12 Este 0 939 0.1 60
2018-05-18 10:00:00 15.1 0 Calma 8 Sudeste 0 939.1 0.6 65
2018-05-18 09:00:00 13.1 3 Sur 10 Sur 0 938.9 0.7 74
2018-05-18 08:00:00 10.9 0 Calma 3 Sur 0 938.9 0.8 87
2018-05-18 07:00:00 9.9 0 Calma 6 Nordeste 0 938.5 0.5 88
2018-05-18 06:00:00 9.8 0 Calma -- -- 0 938.2 0.5 87
2018-05-18 05:00:00 10.6 2 Este 7 Este 0 938.1 -0.2 83
2018-05-18 04:00:00 12.1 4 Nordeste 14 Sudeste 0 938 -0.8 77
2018-05-18 03:00:00 12.7 4 Sudeste 16 Sudeste 0 937.7 -1.1 74
2018-05-18 02:00:00 13.2 4 Sudeste 19 Sudeste 0 938.3 0 72
2018-05-18 01:00:00 13.9 4 Sudeste 16 Sudeste 0 938.8 1 70
2018-05-18 00:00:00 14.7 5 Sudeste 21 Sudeste 0 938.8 1.6 66
2018-05-17 23:00:00 15.6 7 Sudeste 20 Sudeste 0 938.3 1.9 62
2018-05-17 22:00:00 17 6 Sudeste 22 Este 0 937.8 1.5 53
2018-05-17 21:00:00 18.4 5 Sur 23 Sudoeste 0 937.2 1.1 46
2018-05-17 20:00:00 20.2 9 Sur 27 Sudoeste 0 936.4 0.5 41
2018-05-17 19:00:00 20.3 9 Sur 27 Sudoeste 0 936.3 -0.2 39
2018-05-17 18:00:00 21.2 4 Sur 23 Sudeste 0 936.1 -0.6 37
2018-05-17 17:00:00 22.4 5 Sur 26 Sudeste 0 935.9 -1.2 33
2018-05-17 16:00:00 23.1 6 Sur 26 Sudeste 0 936.5 -1.3 33
2018-05-17 15:00:00 22.5 7 Sudeste 28 Sudeste 0 936.7 -1 34
2018-05-17 14:00:00 22.3 11 Sudeste 29 Sudeste 0 937.1 -0.6 35
2018-05-17 13:00:00 21.6 9 Sudeste 28 Sudeste 0 937.8 -0.6 37
2018-05-17 12:00:00 20 8 Sudeste 27 Sudeste 0 937.7 -0.6 41
2018-05-17 11:00:00 16.2 3 Nordeste 11 Este 0 937.7 -0.4 57
2018-05-17 10:00:00 13.3 3 Nordeste 8 Este 0 938.4 0.2 66
2018-05-17 09:00:00 10.4 0 Calma 5 Este 0 938.3 0.3 79
2018-05-17 08:00:00 8 0 Calma 4 Este 0 938.1 0.1 81
2018-05-17 07:00:00 7.7 2 Este 5 Este 0 938.2 -0.1 78
2018-05-17 06:00:00 8.3 2 Nordeste 4 Este 0 938 -0.4 73
2018-05-17 05:00:00 9.2 0 Calma 3 Nordeste 0 938 -0.3 69
2018-05-17 04:00:00 10.4 0 Calma 6 Este 0 938.3 -0.4 64
2018-05-17 03:00:00 11.1 2 Este 9 Este 0 938.4 -0.3 60
2018-05-17 02:00:00 12.1 3 Este 8 Este 0 938.3 0.3 55
2018-05-17 01:00:00 13.3 4 Este 13 Sudeste 0 938.7 1.4 50
2018-05-17 00:00:00 14.6 0 Calma 15 Sur 0 938.7 1.9 44
2018-05-16 23:00:00 16 5 Sudeste 20 Sudeste 0 938 2 40
2018-05-16 22:00:00 17.8 5 Sudeste 16 Norte 0 937.3 1.5 37
2018-05-16 21:00:00 20.1 7 Sudeste 19 Este 0 936.8 0.6 33
2018-05-16 20:00:00 22.2 6 Este 26 Sudeste 0 936 -0.2 30
2018-05-16 19:00:00 22.5 6 Este 19 Sudeste 0 935.8 -1.1 28
2018-05-16 18:00:00 24 5 Sudeste 22 Este 0 936.2 -1.3 27
2018-05-16 17:00:00 24.1 8 Este 26 Sudeste 0 936.2 -1.7 27
2018-05-16 16:00:00 22.4 6 Sudeste 24 Sudeste 0 936.9 -1.4 27
2018-05-16 15:00:00 23.5 10 Este 25 Este 0 937.5 -1 27
2018-05-16 14:00:00 22.6 6 Este 23 Este 0 937.9 -0.8 29
2018-05-16 13:00:00 21.5 8 Este 26 Este 0 938.3 -0.7 30
2018-05-16 12:00:00 19.6 6 Sudeste 20 Sudeste 0 938.5 -0.2 37
2018-05-16 11:00:00 15.9 3 Nordeste 12 Este 0 938.7 0.1 55
2018-05-16 10:00:00 13 3 Este 10 Este 0 939 0.9 67
2018-05-16 09:00:00 10.4 2 Nordeste 6 Nordeste 0 938.7 0.6 86
2018-05-16 08:00:00 8.9 0 Calma -- -- 0 938.6 0.3 90
2018-05-16 07:00:00 8.7 0 Calma 0 Calma 0 938.1 -0.6 90
2018-05-16 06:00:00 9.3 0 Calma -- -- 0 938.1 -0.6 90
2018-05-16 05:00:00 10 0 Calma 6 Este 0 938.3 -0.7 85
2018-05-16 04:00:00 11 0 Calma 7 Este 0 938.7 0 81
2018-05-16 03:00:00 12.2 5 Este 9 Nordeste 0 938.7 -0.1 76
2018-05-16 02:00:00 12.9 4 Este 16 Sur 0 939 0.7 71
2018-05-16 01:00:00 14.1 6 Sudeste 18 Sudoeste 0 938.7 1.1 66
2018-05-16 00:00:00 14.7 8 Sudeste 20 Sur 0 938.8 1.6 62
2018-05-15 23:00:00 15.8 6 Sur 24 Sur 0 938.3 1.4 56
2018-05-15 22:00:00 17.7 0 Calma 4 Este 0 937.6 0.7 37
2018-05-15 21:00:00 19.9 0 Calma 9 Este 0 937.2 0 34
2018-05-15 20:00:00 22.1 4 Este 14 Este 0 936.9 -0.8 30
2018-05-15 19:00:00 21.8 6 Este 23 Este 0 936.9 -1.4 32
2018-05-15 18:00:00 21.8 2 Nordeste 12 Este 0 937.2 -1.6 32
2018-05-15 17:00:00 21.5 0 Calma 18 Oeste 0 937.7 -1.7 33
2018-05-15 16:00:00 20.8 0 Calma 16 Norte 0 938.3 -1.8 34
2018-05-15 15:00:00 19.8 3 Noroeste 15 Nordeste 0 938.8 -1.6 37
2018-05-15 14:00:00 17.6 4 Oeste 13 Oeste 0 939.4 -1.1 42
2018-05-15 13:00:00 16.1 0 Calma 13 Oeste 0 940.1 -0.6 45
2018-05-15 12:00:00 13.7 0 Calma 12 Noroeste 0 940.4 -0.3 51
2018-05-15 11:00:00 11.3 2 Noroeste 12 Noroeste 0 940.5 -0.2 57
2018-05-15 10:00:00 9.8 2 Noroeste 8 Noroeste 0 940.7 0.1 59
2018-05-15 09:00:00 8.3 0 Calma 6 Sur 0 940.7 0.7 68
2018-05-15 08:00:00 7 3 Oeste 8 Sudoeste 0 940.7 0.3 74
2018-05-15 07:00:00 7.2 0 Calma 5 Este 0 940.6 0.2 74
2018-05-15 06:00:00 7.3 3 Este 6 Este 0 940 -0.4 74
2018-05-15 05:00:00 7.8 0 Calma 8 Este 0 940.4 0.4 74
2018-05-15 04:00:00 8.8 0 Calma 10 Este 0 940.4 0.1 70
2018-05-15 03:00:00 9.9 4 Nordeste 10 Este 0 940.4 0.4 60
2018-05-15 02:00:00 10.5 0 Calma 8 Este 0 940 0.4 60
2018-05-15 01:00:00 11.1 0 Calma 8 Nordeste 0 940.3 1.3 57
2018-05-15 00:00:00 12.2 3 Sudoeste 10 Oeste 0 940 1.2 51
2018-05-14 23:00:00 14.4 4 Oeste 12 Oeste 0 939.6 1.3 43
2018-05-14 22:00:00 15.9 3 Oeste 11 Norte 0 939 0.9 40
2018-05-14 21:00:00 17.1 3 Noroeste 26 Noroeste 0 938.8 0.8 37
2018-05-14 20:00:00 19.8 4 Noroeste 23 Oeste 0 938.3 0 32
2018-05-14 19:00:00 19.9 6 Noroeste 26 Noroeste 0 938.1 -0.7 32
2018-05-14 18:00:00 20.1 6 Noroeste 25 Oeste 0 938 -1.4 31
2018-05-14 17:00:00 21.6 7 Oeste 37 Oeste 0 938.3 -1.1 33
2018-05-14 16:00:00 20.3 6 Oeste 30 Oeste 0 938.8 -1.3 35
2018-05-14 15:00:00 18.5 5 Noroeste 27 Oeste 0 939.4 -0.9 38
2018-05-14 14:00:00 18.2 6 Noroeste 23 Oeste 0 939.4 -1.2 39
2018-05-14 13:00:00 16.7 8 Oeste 25 Oeste 0 940.1 -0.9 43
2018-05-14 12:00:00 15.3 8 Oeste 24 Noroeste 0 940.3 -1 46
2018-05-14 11:00:00 13.2 4 Noroeste 16 Oeste 0 940.6 -0.4 51
2018-05-14 10:00:00 11.1 4 Oeste 15 Oeste 0 941 0.1 57
2018-05-14 09:00:00 8.5 6 Oeste 14 Noroeste 0 941.3 0.6 63
2018-05-14 08:00:00 6.9 3 Oeste 8 Sudoeste 0 941 0.1 63
2018-05-14 07:00:00 7.3 3 Oeste 8 Oeste 0 940.9 0 60
2018-05-14 06:00:00 7.7 0 Calma 8 Oeste 0 940.7 -0.5 57
2018-05-14 05:00:00 7.9 4 Oeste 10 Oeste 0 940.9 -0.4 54
2018-05-14 04:00:00 8.4 4 Oeste 9 Sudoeste 0 940.9 -0.5 52
2018-05-14 03:00:00 9.1 4 Sudoeste 9 Oeste 0 941.2 -0.4 48
2018-05-14 02:00:00 10.1 3 Oeste 11 Sudoeste 0 941.3 -0.3 44
2018-05-14 01:00:00 10.8 4 Sudoeste 9 Sudoeste 0 941.4 0.2 42
2018-05-11 20:00:00 24 5 Sudoeste 13 Sudoeste 0 937.7 -0.7 36
2018-05-11 19:00:00 24.7 3 Sudoeste 19 Sudoeste 0 937.7 -1.3 36
2018-05-11 18:00:00 25.4 3 Oeste 17 Oeste 0 938 -1.4 33
2018-05-11 17:00:00 24.9 3 Oeste 21 Oeste 0 938.4 -1.7 34
2018-05-11 16:00:00 24.3 5 Sur 17 Sur 0 939 -1.7 38
2018-05-11 15:00:00 23.5 5 Oeste 13 Sudoeste 0 939.4 -1.7 42
2018-05-11 14:00:00 22.2 0 Calma 12 Sudeste 0 940.1 -1 50
2018-05-11 13:00:00 20.8 3 Este 11 Oeste 0.1 940.7 -0.3 56
2018-05-11 12:00:00 18.5 0 Calma 8 Sudoeste 0 941.1 0.3 66
2018-05-11 11:00:00 16.5 3 Sur 15 Sudoeste 0 941.1 0.6 76
2018-05-11 10:00:00 15.2 4 Sudeste 18 Sur 0 941 0.9 84
2018-05-11 09:00:00 13.8 5 Sudeste 16 Sudeste 0 940.8 1.1 90
2018-05-11 08:00:00 13.1 5 Sudeste 14 Sudeste 0 940.5 1.1 93
2018-05-11 07:00:00 13 3 Sur 14 Sur 0 940.1 0.5 95
2018-05-11 06:00:00 12.4 4 Sur 17 Sudeste 0 939.7 0.1 98
2018-05-11 05:00:00 12.3 3 Sur 20 Sur 0 939.4 -0.3 98
2018-05-11 04:00:00 12 4 Sudeste 12 Sudeste 0 939.6 -0.2 98
2018-05-11 03:00:00 11.2 3 Este 8 Este 0 939.6 -0.1 96
2018-05-11 02:00:00 11.9 4 Este 13 Este 0 939.7 0.5 95
2018-05-11 01:00:00 12.9 3 Este 12 Este 0 939.8 0.7 90
2018-05-11 00:00:00 14.2 3 Este 16 Este 0 939.7 0.9 89
2018-05-10 23:00:00 14.8 5 Sur 20 Este 0 939.2 1 84
2018-05-10 22:00:00 14.8 4 Sudeste 21 Sudeste 0 939.1 1.2 84
2018-05-10 21:00:00 14.6 10 Sudeste 26 Sudeste 0 938.8 2.3 90
2018-05-10 20:00:00 13.8 8 Este 38 Este 9 938.2 2.1 96
2018-05-10 19:00:00 18 8 Sudeste 39 Sur 0 937.9 1.6 70
2018-05-10 18:00:00 19.7 11 Sur 58 Sudeste 0 936.5 -0.2 60
2018-05-10 17:00:00 24.5 5 Sudoeste 15 Oeste 0 936.1 -0.9 38
2018-05-10 16:00:00 25 0 Calma 16 Oeste 0 936.3 -1.1 40
2018-05-10 15:00:00 24 3 Nordeste 20 Sudoeste 0 936.7 -0.6 45
2018-05-10 14:00:00 21.9 3 Noroeste 14 Oeste 0 937 0.1 53
2018-05-10 13:00:00 20.2 0 Calma 18 Este 0 937.4 0.4 63
2018-05-10 12:00:00 18.6 4 Noroeste 16 Oeste 0 937.3 0.5 71
2018-05-10 11:00:00 17.7 4 Noroeste 19 Oeste 0 936.9 0.8 77
2018-05-10 10:00:00 16.4 5 Noroeste 12 Noroeste 0 937 2.1 86
2018-05-10 09:00:00 15.2 0 Calma 5 Este 0 936.8 2.9 91
2018-05-10 08:00:00 15 2 Este 5 Este 0 936.1 2 91
2018-05-10 07:00:00 14.7 0 Calma 6 Norte 0 934.9 0.8 91
2018-05-10 06:00:00 15.1 3 Noroeste 15 Oeste 0 933.9 -0.2 90
2018-05-10 05:00:00 15.6 7 Oeste 23 Sudoeste 0 934.1 -0.1 89
2018-05-10 04:00:00 16.1 10 Oeste 27 Oeste 0 934.1 0.1 87
2018-05-10 03:00:00 16.3 11 Oeste 27 Noroeste 0 934.1 0.5 87
2018-05-10 02:00:00 16.4 9 Oeste 31 Oeste 0 934.2 0.8 89
2018-05-10 01:00:00 16.3 9 Oeste 28 Noroeste 0 934 1.1 89
2018-05-10 00:00:00 16.2 12 Oeste 29 Oeste 0 933.6 1.1 89
2018-05-09 23:00:00 17 8 Oeste 28 Oeste 0 933.4 1.2 85
2018-05-09 22:00:00 17.4 6 Oeste 21 Sudoeste 0 932.9 1 82
2018-05-09 21:00:00 18.6 8 Oeste 32 Sudoeste 0 932.5 1.1 75
2018-05-09 20:00:00 19.3 12 Oeste 36 Oeste 0 932.2 0.9 70
2018-05-09 19:00:00 20.8 13 Oeste 41 Sudoeste 0 931.9 0 60
2018-05-09 18:00:00 22.1 11 Oeste 37 Oeste 0 931.4 -1.2 45
2018-05-09 17:00:00 24.3 7 Noroeste 27 Noroeste 0 931.3 -1.7 41
2018-05-09 16:00:00 26.4 12 Oeste 33 Sudoeste 0 931.9 -1.7 34
2018-05-09 15:00:00 25.9 9 Oeste 30 Oeste 0 932.6 -1.5 36
2018-05-09 14:00:00 24.8 8 Noroeste 28 Oeste 0 933 -1.2 40
2018-05-09 13:00:00 23.3 6 Noroeste 21 Oeste 0 933.6 -1 46
2018-05-09 12:00:00 20.8 5 Oeste 19 Oeste 0 934.1 -0.7 56
2018-05-09 11:00:00 17.7 4 Oeste 13 Oeste 0 934.2 -0.2 70
2018-05-09 10:00:00 15.2 4 Sudoeste 8 Sudoeste 0 934.6 0.6 79
2018-05-09 09:00:00 13.1 3 Norte 6 Norte 0 934.8 1.1 92
2018-05-09 08:00:00 11.4 0 Calma -- -- 0 934.4 0.7 93
2018-05-09 07:00:00 11.1 0 Calma -- -- 0 934 -0.1 91
2018-05-09 06:00:00 11.9 0 Calma -- -- 0 933.7 -1.2 88
2018-05-09 05:00:00 12.9 0 Calma -- -- 0 933.7 -1.6 87
2018-05-09 04:00:00 13.4 0 Calma 0 Calma 0 934.1 -1 85
2018-05-09 03:00:00 13.6 0 Calma 3 Sur 0 934.9 0 81
2018-05-09 02:00:00 14.5 0 Calma 8 Oeste 0 935.3 0.6 77
2018-05-09 01:00:00 15.2 2 Oeste 10 Oeste 0 935.1 0.8 73
2018-05-09 00:00:00 15.6 5 Sudoeste 12 Sudoeste 0 934.9 1 72
2018-05-08 23:00:00 16.4 0 Calma 6 Oeste 0 934.7 1.1 70
2018-05-08 22:00:00 17.6 3 Sur 11 Sudoeste 0 934.3 0.6 65
2018-05-08 21:00:00 18.8 2 Nordeste 7 Norte 0 933.9 0.5 59
2018-05-08 20:00:00 20.8 0 Calma 14 Este 0 933.6 0 46
2018-05-08 19:00:00 21.9 2 Norte 13 Norte 0 933.7 -0.6 43
2018-05-08 18:00:00 22.7 2 Norte 10 Nordeste 0 933.4 -0.7 40
2018-05-08 17:00:00 22.8 2 Norte 28 Norte 0 933.6 -1 39
2018-05-08 16:00:00 23.1 6 Norte 36 Norte 0 934.3 -0.9 39
2018-05-08 15:00:00 25 4 Noroeste 17 Noroeste 0 934.1 -1.8 37
2018-05-08 14:00:00 23.4 3 Noroeste 17 Oeste 0 934.6 -1.5 42
2018-05-08 13:00:00 21.2 4 Oeste 13 Oeste 0 935.2 -0.8 50
2018-05-08 12:00:00 18.5 3 Noroeste 12 Norte 0 935.9 -0.1 60
2018-05-08 11:00:00 16.8 4 Noroeste 12 Oeste 0 936.1 0.3 64
2018-05-08 10:00:00 15.5 6 Oeste 13 Oeste 0 936 0.4 67
2018-05-08 09:00:00 14.2 0 Calma 4 Oeste 0 936 0.6 78
2018-05-08 08:00:00 13.1 0 Calma 5 Oeste 0 935.8 0.2 80
2018-05-08 07:00:00 13.1 0 Calma 6 Este 0 935.6 -0.1 79
2018-05-08 06:00:00 12.9 0 Calma 8 Nordeste 0 935.4 -0.7 78
2018-05-08 05:00:00 13.5 3 Este 10 Sudeste 0 935.6 -0.8 74
2018-05-08 04:00:00 13.9 2 Sudoeste 13 Sudeste 0 935.7 -1.1 71
2018-05-08 03:00:00 14.4 4 Sur 12 Sur 0 936.1 -0.8 67
2018-05-08 02:00:00 15.1 3 Sur 13 Sudeste 0 936.4 -0.3 60
2018-05-08 01:00:00 15.7 5 Sudeste 14 Sudeste 0 936.8 1.1 54
2018-05-08 00:00:00 17.1 8 Sudeste 20 Sudeste 0 936.9 1.7 50
2018-05-07 23:00:00 17.7 4 Este 16 Este 0 936.7 1.8 48
2018-05-07 22:00:00 20.2 8 Este 21 Este 0 935.7 0.7 37
2018-05-07 21:00:00 22.5 0 Calma 8 Norte 0 935.2 -0.1 32
2018-05-07 20:00:00 23.5 0 Calma 8 Oeste 0 934.9 -0.4 30
2018-05-07 19:00:00 23.1 0 Calma 13 Sudeste 0 935 -1.2 31
2018-05-07 18:00:00 23 6 Sudeste 12 Sudeste 0 935.3 -1.8 31
2018-05-07 17:00:00 23.7 3 Norte 16 Sudoeste 0 935.3 -2.4 30
2018-05-07 16:00:00 23.3 3 Nordeste 13 Sudeste 0 936.2 -2.1 33
2018-05-07 15:00:00 21.8 6 Sudeste 26 Sudoeste 0 937.1 -1.6 35
2018-05-07 14:00:00 21.7 4 Sur 19 Sudoeste 0 937.7 -1.2 39
2018-05-07 13:00:00 20.1 3 Nordeste 16 Norte 0 938.3 -0.4 46
2018-05-07 12:00:00 18.4 4 Este 12 Este 0 938.7 -0.1 53
2018-05-07 11:00:00 15.5 2 Nordeste 8 Este 0 938.9 0.3 67
2018-05-07 10:00:00 13.2 2 Nordeste 8 Este 0 938.7 0.6 86
2018-05-07 09:00:00 11.5 2 Este 8 Este 0 938.8 0.6 96
2018-05-07 08:00:00 10.4 0 Calma 3 Este 0 938.6 0.1 96
2018-05-07 07:00:00 10.7 0 Calma 4 Nordeste 0 938.1 -0.8 93
2018-05-07 06:00:00 11.8 0 Calma -- -- 0 938.2 -1 88
2018-05-07 05:00:00 12.6 0 Calma 3 Este 0 938.5 -0.9 84
2018-05-07 04:00:00 13 0 Calma 5 Nordeste 0 938.9 -0.6 82
2018-05-07 03:00:00 12.9 0 Calma 4 Nordeste 0 939.2 -0.1 81
2018-05-07 02:00:00 12.4 0 Calma 4 Sudeste 0 939.4 0 80
2018-05-07 01:00:00 13.3 2 Este 9 Sudeste 0.1 939.5 0.5 73
2018-05-07 00:00:00 14.4 4 Sudeste 13 Sudeste 0 939.3 0.8 67
2018-05-06 23:00:00 15.2 3 Este 11 Sudeste 0 939.4 1.7 64
2018-05-06 22:00:00 16 2 Este 12 Nordeste 0 939 1.6 59
2018-05-06 21:00:00 17.8 6 Este 16 Sudeste 0 938.5 1.1 51
2018-05-06 20:00:00 19 4 Sudeste 18 Sudeste 0 937.7 -0.3 50
2018-05-06 19:00:00 20.1 9 Sudeste 21 Sur 0 937.4 -1 48
2018-05-06 18:00:00 20.5 3 Este 12 Sudeste 0 937.4 -1.2 50
2018-05-06 17:00:00 18 5 Este 15 Este 0.1 938 -1.2 63
2018-05-06 16:00:00 16.6 6 Sudeste 30 Sudeste 1.7 938.4 -1.2 70
2018-05-06 15:00:00 20.7 5 Este 17 Sudeste 0 938.6 -1.4 43
2018-05-06 14:00:00 20.2 5 Este 19 Nordeste 0 939.2 -1.2 46
2018-05-06 13:00:00 19.3 4 Este 18 Este 0 939.6 -1 49
2018-05-06 12:00:00 18.1 5 Nordeste 17 Este 0 940 -0.6 59
2018-05-06 11:00:00 15 5 Nordeste 13 Este 0 940.4 0.3 74
2018-05-06 10:00:00 12.7 2 Nordeste 9 Nordeste 0 940.6 0.9 83
2018-05-06 09:00:00 10.7 0 Calma -- -- 0 940.6 1 88
2018-05-06 08:00:00 9 0 Calma -- -- 0 940.1 0.4 93
2018-05-06 07:00:00 9.1 0 Calma -- -- 0 939.7 -0.1 94
2018-05-06 06:00:00 9.7 0 Calma -- -- 0 939.6 -0.5 94
2018-05-06 05:00:00 10.5 0 Calma 4 Este 0 939.7 -0.7 94
2018-05-06 04:00:00 11.5 0 Calma 0 Calma 0 939.8 -0.6 93
2018-05-06 03:00:00 12 0 Calma 10 Este 0 940.1 -0.3 90
2018-05-06 02:00:00 12.6 0 Calma 11 Este 0 940.4 0.3 85
2018-05-06 01:00:00 13.1 2 Este 12 Sudeste 0.3 940.4 1.1 80
2018-05-06 00:00:00 14.7 4 Sur 15 Sudeste 0.1 940.4 1.9 63
2018-05-05 23:00:00 15.6 6 Sudeste 15 Sudeste 0 940.1 2.4 57
2018-05-05 22:00:00 16.4 3 Este 17 Este 0 939.3 2.3 62
2018-05-05 21:00:00 17.3 8 Este 22 Sudeste 0 938.5 1.6 59
2018-05-05 20:00:00 18.2 10 Sudeste 29 Este 0 937.7 0.6 50
2018-05-05 19:00:00 21.5 0 Calma 10 Noroeste 0 937 -0.3 37
2018-05-05 18:00:00 22.5 3 Nordeste 12 Este 0 936.9 -0.9 38
2018-05-05 17:00:00 21.3 3 Norte 12 Norte 0 937.1 -0.9 41
2018-05-05 16:00:00 21.3 0 Calma 9 Noroeste 0 937.3 -0.8 41
2018-05-05 15:00:00 20.1 0 Calma 10 Sur 0 937.8 -0.2 43
2018-05-05 14:00:00 18.7 2 Sur 12 Sudoeste 0 938 -0.2 47
2018-05-05 13:00:00 17.5 3 Sudoeste 9 Noroeste 0 938.1 -0.1 55
2018-05-05 12:00:00 17 0 Calma 9 Este 0 938 0.1 57
2018-05-05 11:00:00 15.7 3 Nordeste 9 Este 0 938.2 0.6 66
2018-05-05 10:00:00 13.6 4 Nordeste 9 Nordeste 0 938.2 0.8 73
2018-05-05 09:00:00 12.2 3 Este 7 Este 0 937.9 0.7 82
2018-05-05 08:00:00 11.7 0 Calma 7 Este 0 937.6 0.3 82
2018-05-05 07:00:00 12.1 2 Este 6 Este 0 937.4 0.3 77
2018-05-05 06:00:00 12.4 3 Este 9 Nordeste 0 937.2 -0.1 74
2018-05-05 05:00:00 12.6 2 Este 15 Este 0 937.3 -0.3 74
2018-05-05 04:00:00 12.9 4 Sur 23 Sudoeste 0 937.1 -0.6 70
2018-05-05 03:00:00 13 5 Sur 18 Sur 0 937.3 -0.2 69
2018-05-05 02:00:00 13.2 5 Sudeste 19 Sudeste 0 937.6 0.8 65
2018-05-05 01:00:00 13.7 3 Sudeste 17 Nordeste 0 937.7 1.7 62
2018-05-05 00:00:00 14.2 6 Sudeste 23 Sudeste 0 937.5 1.8 60
2018-05-04 23:00:00 14.8 12 Sudeste 27 Sudeste 0 936.8 1.7 59
2018-05-04 22:00:00 15.9 12 Sudeste 26 Sudeste 0 936 1.1 50
2018-05-04 21:00:00 18.4 4 Este 22 Este 0 935.7 1.2 37
2018-05-04 20:00:00 19.3 4 Este 12 Este 0 935.1 0.8 35
2018-05-04 19:00:00 20.3 4 Nordeste 13 Noroeste 0 934.9 0.2 33
2018-05-04 18:00:00 20.9 3 Norte 18 Norte 0 934.5 -0.5 33
2018-05-04 17:00:00 21.2 4 Oeste 15 Noroeste 0 934.3 -0.8 33
2018-05-04 16:00:00 20.4 2 Noroeste 11 Oeste 0 934.7 -0.7 35
2018-05-04 15:00:00 19.1 5 Sudoeste 18 Oeste 0 935 -0.5 37
2018-05-04 14:00:00 18 4 Nordeste 13 Sudeste 0 935.1 -0.4 43
2018-05-04 13:00:00 16.9 3 Este 13 Este 0 935.4 -0.1 48
2018-05-04 12:00:00 13.7 3 Nordeste 12 Este 0 935.5 0.6 55
2018-05-04 11:00:00 10.4 2 Noroeste 9 Norte 0 935.5 0.6 64
2018-05-04 10:00:00 8.3 0 Calma 8 Oeste 0 935.5 0.9 70
2018-05-04 09:00:00 6.7 2 Norte 7 Oeste 0 934.9 0.2 75
2018-05-04 08:00:00 5.1 2 Oeste 8 Oeste 0 934.9 0.1 78
2018-05-04 07:00:00 5.7 0 Calma 6 Oeste 0 934.6 0 76
2018-05-04 06:00:00 6.6 0 Calma 6 Noroeste 0 934.7 -0.3 72
2018-05-04 05:00:00 7.1 2 Noroeste 9 Oeste 0 934.8 -0.4 71
2018-05-04 04:00:00 7.8 2 Oeste 6 Oeste 0 934.6 -0.5 69
2018-05-04 03:00:00 7.9 2 Oeste 10 Norte 0 935 0 67
2018-05-04 02:00:00 9.7 0 Calma 10 Norte 0 935.2 0.3 59
2018-05-04 01:00:00 11.3 3 Nordeste 21 Norte 0 935.1 1 53
2018-05-04 00:00:00 12.4 4 Nordeste 21 Norte 0 935 1.6 48
2018-05-03 23:00:00 13 2 Norte 14 Norte 0 934.9 2.1 43
2018-05-03 22:00:00 14.3 0 Calma 14 Norte 0 934.1 1.3 39
2018-05-03 21:00:00 17.3 5 Noroeste 19 Noroeste 0 933.4 0.5 34
2018-05-03 20:00:00 19.7 5 Noroeste 25 Oeste 0 932.8 -0.6 30
2018-05-03 19:00:00 19.8 8 Noroeste 37 Oeste 0 932.8 -1.1 31
2018-05-03 18:00:00 20.7 9 Noroeste 29 Oeste 0 932.9 -1.2 33
2018-05-03 17:00:00 20.6 7 Noroeste 30 Oeste 0 933.4 -1 33
2018-05-03 16:00:00 19.4 7 Noroeste 34 Noroeste 0 933.9 -1.4 36
2018-05-03 15:00:00 19.1 8 Noroeste 30 Oeste 0 934.1 -1.8 40
2018-05-03 14:00:00 19.2 9 Oeste 31 Oeste 0 934.4 -1.7 42
2018-05-03 13:00:00 17.9 6 Noroeste 24 Oeste 0 935.3 -0.9 46
2018-05-03 12:00:00 16.4 5 Noroeste 22 Oeste 0 935.9 -0.5 53
2018-05-03 11:00:00 14.2 8 Noroeste 23 Oeste 0 936.1 -0.2 60
2018-05-03 10:00:00 12.1 8 Oeste 23 Oeste 0 936.2 -0.1 66
2018-05-03 09:00:00 9.4 9 Oeste 22 Oeste 0 936.4 0.1 70
2018-05-03 08:00:00 8.2 7 Oeste 20 Oeste 0 936.3 -0.1 69
2018-05-03 07:00:00 8 6 Oeste 19 Oeste 0 936.3 -0.4 66
2018-05-03 06:00:00 8.7 7 Oeste 18 Oeste 0 936.3 -0.7 60
2018-05-03 05:00:00 9.6 8 Oeste 19 Oeste 0 936.4 -1 54
2018-05-03 04:00:00 10.2 8 Oeste 19 Oeste 0 936.7 -0.6 53
2018-05-03 03:00:00 10.6 8 Oeste 18 Oeste 0 937 -0.1 50
2018-05-03 02:00:00 11.5 8 Oeste 23 Oeste 0 937.4 0.7 48
2018-05-03 01:00:00 11.6 8 Oeste 24 Oeste 0 937.3 1 48
2018-05-03 00:00:00 11.1 7 Oeste 17 Oeste 0 937.1 1.2 49
2018-05-02 23:00:00 11.7 5 Oeste 21 Oeste 0 936.7 1 47
2018-05-02 22:00:00 13 10 Oeste 23 Oeste 0 936.3 0.7 42
2018-05-02 21:00:00 14.7 9 Oeste 27 Oeste 0 935.9 0.3 38
2018-05-02 20:00:00 16.4 13 Oeste 35 Oeste 0 935.7 0.1 35
2018-05-02 19:00:00 16.9 12 Oeste 34 Oeste 0 935.6 -0.5 33
2018-05-02 18:00:00 17.5 9 Oeste 35 Oeste 0 935.6 -0.9 32
2018-05-02 17:00:00 17.5 13 Oeste 31 Noroeste 0 935.6 -1.2 33
2018-05-02 16:00:00 17 14 Oeste 32 Oeste 0 936.1 -1.1 31
2018-05-02 15:00:00 16.7 9 Oeste 33 Oeste 0 936.5 -1 33
2018-05-02 14:00:00 15.9 10 Oeste 34 Noroeste 0 936.8 -0.6 34
2018-05-02 13:00:00 15.7 11 Oeste 32 Oeste 0 937.2 -0.3 39
2018-05-02 12:00:00 14.1 10 Oeste 27 Oeste 0 937.5 0.2 44
2018-05-02 11:00:00 12 8 Oeste 28 Oeste 0 937.4 0.3 55
2018-05-02 10:00:00 10 10 Oeste 27 Oeste 0 937.5 0.9 69
2018-05-02 09:00:00 6.5 5 Oeste 15 Oeste 0 937.3 0.5 87
2018-05-02 08:00:00 5.3 0 Calma 10 Oeste 0 937.1 0.4 88
2018-05-02 07:00:00 5.2 2 Sudoeste 13 Sudoeste 0 936.6 -0.2 87
2018-05-02 06:00:00 5.5 2 Oeste 11 Sudoeste 0 936.8 -0.1 86
2018-05-02 05:00:00 5.8 3 Oeste 8 Sudoeste 0 936.7 0 86
2018-05-02 04:00:00 6 0 Calma 8 Oeste 0 936.8 -- 85
2018-05-02 03:00:00 6.2 3 Oeste 11 Oeste 0 936.9 -- 85
2018-05-02 02:00:00 6.7 4 Oeste 16 Oeste 0 936.7 0.7 82
2018-05-02 01:00:00 -- -- -- -- -- -- -- -- --
2018-05-02 00:00:00 -- -- -- -- -- -- -- -- --
2018-05-01 23:00:00 10.5 6 Oeste 17 Oeste 0 936 1.4 45
2018-05-01 22:00:00 11.8 0 Calma 9 Oeste 0 935.5 1.8 39
2018-05-01 21:00:00 12.8 5 Oeste 27 Noroeste 0 934.9 1 36
2018-05-01 20:00:00 13.6 5 Norte 28 Norte 0 934.6 0.6 35
2018-05-01 19:00:00 15.9 7 Noroeste 23 Noroeste 0 933.7 -0.8 27
2018-05-01 18:00:00 17 3 Oeste 17 Oeste 0 933.9 -1.3 28
2018-05-01 17:00:00 17 4 Noroeste 16 Norte 0 934 -1.5 30
2018-05-01 16:00:00 15.3 4 Norte 21 Oeste 0 934.5 -1.2 32
2018-05-01 15:00:00 14.9 4 Noroeste 20 Oeste 0 935.2 -0.9 33
2018-05-01 14:00:00 14.3 4 Noroeste 19 Norte 0 935.5 -0.9 37
2018-05-01 13:00:00 13 5 Oeste 17 Oeste 0 935.7 -0.9 40
2018-05-01 12:00:00 11.1 5 Noroeste 19 Oeste 0 936.1 -0.4 50
2018-05-01 11:00:00 8.5 3 Norte 16 Noroeste 0 936.4 0.1 63
2018-05-01 10:00:00 5.9 2 Noroeste 15 Oeste 0 936.6 0.6 89
2018-05-01 09:00:00 3.4 6 Oeste 12 Oeste 0 936.5 0.5 94
2018-05-01 08:00:00 2.4 0 Calma 7 Oeste 0 936.3 0.3 95
2018-05-01 07:00:00 2.1 3 Oeste 9 Sudoeste 0 936 0 94
2018-05-01 06:00:00 2.6 0 Calma 7 Oeste 0 936 -0.4 94
2018-05-01 05:00:00 3.1 0 Calma 7 Oeste 0 936 -1 92
2018-05-01 04:00:00 3.3 0 Calma 5 Sudoeste 0 936 -0.8 92
2018-05-01 03:00:00 4.2 0 Calma 5 Sudoeste 0 936.4 -0.6 87
2018-05-01 02:00:00 4.7 0 Calma 6 Oeste 0 937 0.2 82
2018-05-01 01:00:00 5.6 0 Calma 6 Oeste 0 936.8 0.2 77
2018-05-01 00:00:00 6.5 0 Calma 10 Oeste 0 937 0.9 72
2018-04-30 23:00:00 7.3 3 Oeste 17 Noroeste 0 936.8 1.3 66
2018-04-30 22:00:00 8.5 4 Oeste 26 Oeste 0 936.6 1.7 62
2018-04-30 21:00:00 9.8 8 Oeste 25 Oeste 0 936.1 1.4 62
2018-04-30 20:00:00 10 6 Oeste 27 Oeste 1.2 935.5 0.7 65
2018-04-30 19:00:00 12.6 8 Oeste 28 Oeste 0 934.9 -0.2 45
2018-04-30 18:00:00 12.7 6 Noroeste 29 Oeste 0 934.7 -1.2 43
2018-04-30 17:00:00 13.6 9 Oeste 33 Sudoeste 0 934.8 -1.6 40
2018-04-30 16:00:00 14 12 Oeste 32 Oeste 0 935.1 -1.9 39
2018-04-30 15:00:00 12.9 10 Oeste 30 Oeste 0 935.9 -1.5 44
2018-04-30 14:00:00 12.4 8 Oeste 28 Sudoeste 0 936.4 -0.7 47
2018-04-30 13:00:00 11.1 4 Noroeste 17 Oeste 0 937 -0.4 54
2018-04-30 12:00:00 10.3 7 Oeste 18 Oeste 0 937.4 0.3 61
2018-04-30 11:00:00 8.7 7 Oeste 18 Oeste 0 937.1 0.3 72
2018-04-30 10:00:00 8 4 Oeste 14 Oeste 0 937.4 0.8 78
2018-04-30 09:00:00 7.3 5 Oeste 17 Oeste 0 937.1 0.5 83
2018-04-30 08:00:00 7 3 Sudoeste 14 Oeste 0 936.8 0.1 83
2018-04-30 07:00:00 7.2 3 Oeste 17 Sudoeste 0 936.6 -0.3 82
2018-04-30 06:00:00 7.4 4 Oeste 16 Oeste 0 936.6 -0.5 84
2018-04-30 05:00:00 7.6 4 Oeste 17 Sudoeste 0 936.7 -1.2 85
2018-04-30 04:00:00 7.7 5 Sudoeste 14 Oeste 0 936.9 -1 85
2018-04-30 03:00:00 7.8 5 Oeste 17 Sudoeste 0 937.1 -0.7 84
2018-04-30 02:00:00 7.8 5 Oeste 20 Oeste 0 937.9 0.1 84
2018-04-30 01:00:00 8.3 8 Oeste 21 Oeste 0 937.9 1.2 83
2018-04-30 00:00:00 8.2 6 Oeste 18 Oeste 0.1 937.8 1.8 90
2018-04-29 23:00:00 8.4 11 Oeste 31 Oeste 1.3 937.8 2.6 87
2018-04-29 22:00:00 10.1 6 Oeste 20 Oeste 0 936.7 1.9 63
2018-04-29 21:00:00 11 9 Oeste 34 Oeste 0 936 1.6 54
2018-04-29 20:00:00 12.2 15 Oeste 45 Oeste 0 935.2 0.7 50
2018-04-29 19:00:00 12.2 18 Oeste 44 Oeste 0 934.8 0.6 51
2018-04-29 18:00:00 12 16 Oeste 47 Oeste 0 934.4 0.5 56
2018-04-29 17:00:00 12.3 19 Oeste 47 Sudoeste 0 934.5 0.5 53
2018-04-29 16:00:00 12.5 21 Oeste 55 Oeste 0 934.2 0.7 53
2018-04-29 15:00:00 11.6 19 Oeste 56 Sudoeste 0 933.9 0.3 55
2018-04-29 14:00:00 10.7 22 Oeste 71 Oeste 0 934 1.3 57
2018-04-29 13:00:00 11.6 20 Oeste 58 Oeste 0 933.5 1.6 53
2018-04-29 12:00:00 10 28 Oeste 60 Oeste 0 933.6 2.2 61
2018-04-29 11:00:00 9.9 23 Oeste 57 Oeste 0 932.7 2 62
2018-04-29 10:00:00 8.2 18 Oeste 46 Oeste 0 931.9 1.7 70
2018-04-29 09:00:00 7.9 17 Oeste 46 Oeste 0 931.4 1.5 71
2018-04-29 08:00:00 7.1 9 Oeste 36 Sudoeste 0 930.7 0.7 75
2018-04-29 07:00:00 7.7 6 Sudoeste 39 Oeste 0 930.2 -0.1 72
2018-04-29 06:00:00 8.8 3 Sudoeste 32 Oeste 0 929.9 -0.8 62
2018-04-29 05:00:00 9.2 7 Sudoeste 19 Sudoeste 0 930 -0.9 67
2018-04-29 04:00:00 9.5 6 Oeste 28 Oeste 0 930.3 -0.8 66
2018-04-29 03:00:00 10.8 10 Oeste 22 Oeste 0 930.7 0.1 57
2018-04-29 02:00:00 11.2 3 Oeste 22 Oeste 0 930.9 0.6 57
2018-04-29 01:00:00 12 9 Oeste 21 Oeste 0 931.1 0.9 57
2018-04-29 00:00:00 13.6 7 Oeste 25 Oeste 0 930.6 1 53
2018-04-28 23:00:00 14.9 12 Oeste 31 Oeste 0 930.3 1.6 52
2018-04-28 22:00:00 16.3 14 Oeste 35 Oeste 0 930.2 1.4 50
2018-04-28 21:00:00 17.9 9 Oeste 32 Sudoeste 1.1 929.6 0.3 51
2018-04-28 20:00:00 19.9 14 Oeste 49 Oeste 0.3 928.7 -1.3 43
2018-04-28 19:00:00 20.9 19 Oeste 46 Oeste 0 928.8 -2 34
2018-04-28 18:00:00 22.7 13 Oeste 39 Oeste 0 929.3 -2.6 30
2018-04-28 17:00:00 23.6 15 Oeste 40 Oeste 0 930 -2.3 27
2018-04-28 16:00:00 23.2 12 Oeste 33 Oeste 0 930.8 -2.3 29
2018-04-28 15:00:00 22.2 3 Oeste 23 Oeste 0 931.9 -1.7 35
2018-04-28 14:00:00 22 5 Oeste 23 Oeste 0 932.3 -1.8 39
2018-04-28 13:00:00 20.3 0 Calma 21 Oeste 0 933.1 -1.1 46
2018-04-28 12:00:00 18.9 6 Oeste 16 Sudoeste 0 933.6 -0.7 54
2018-04-28 11:00:00 16.9 6 Oeste 20 Oeste 0 934.1 0 63
2018-04-28 10:00:00 15.1 5 Oeste 16 Sudoeste 0 934.2 0.2 76
2018-04-28 09:00:00 13.5 4 Sudoeste 13 Sur 0 934.3 0.3 82
2018-04-28 08:00:00 12 0 Calma 8 Sudoeste 0 934.1 -0.1 83
2018-04-28 07:00:00 11.9 0 Calma 8 Sudoeste 0 934 -0.3 78
2018-04-28 06:00:00 12.1 3 Oeste 8 Sudoeste 0 934 -0.6 73
2018-04-28 05:00:00 12.7 0 Calma 10 Sudoeste 0 934.2 -1.1 64
2018-04-28 04:00:00 14.2 3 Sudoeste 10 Sudoeste 0 934.3 -1.2 60
2018-04-28 03:00:00 15.1 3 Sudoeste 10 Oeste 0 934.6 -1.1 55
2018-04-28 02:00:00 15.1 0 Calma 11 Oeste 0 935.3 -0.5 56
2018-04-28 01:00:00 16.6 3 Oeste 9 Sudoeste 0 935.5 -0.1 55
2018-04-28 00:00:00 17.6 3 Sudoeste 13 Oeste 0 935.7 1.3 52
2018-04-27 23:00:00 18.7 5 Sudoeste 13 Sudoeste 0 935.8 1.9 47
2018-04-27 22:00:00 20.1 3 Sudoeste 17 Sudoeste 0 935.6 1.9 45
2018-04-27 21:00:00 21.8 6 Sudoeste 30 Oeste 0 934.4 0.7 36
2018-04-27 20:00:00 23.8 13 Oeste 33 Oeste 0 933.9 0 33
2018-04-27 19:00:00 24.1 13 Oeste 32 Oeste 0 933.7 -0.6 34
2018-04-27 18:00:00 23.9 5 Noroeste 31 Oeste 0 933.7 -1.3 40
2018-04-27 17:00:00 25.4 14 Oeste 33 Oeste 0 933.9 -1.7 36
2018-04-27 16:00:00 25.6 11 Oeste 29 Noroeste 0 934.3 -1.9 35
2018-04-27 15:00:00 24.8 10 Oeste 31 Oeste 0 935 -1.9 37
2018-04-27 14:00:00 23.9 11 Oeste 30 Oeste 0 935.6 -1.3 40
2018-04-27 13:00:00 22.9 11 Oeste 29 Sudoeste 0 936.2 -0.8 46
2018-04-27 12:00:00 20.2 10 Oeste 29 Oeste 0 936.9 0 62
2018-04-27 11:00:00 19 12 Oeste 28 Noroeste 0 936.9 0.4 68
2018-04-27 10:00:00 17.5 11 Oeste 26 Oeste 0 937 0.8 79
2018-04-27 09:00:00 15.1 9 Oeste 21 Noroeste 0 936.9 0.5 92
2018-04-27 08:00:00 13.5 2 Nordeste 12 Oeste 0 936.5 0.2 92
2018-04-27 07:00:00 14.2 0 Calma 12 Sudoeste 0 936.2 -0.5 92
2018-04-27 06:00:00 14.6 0 Calma 14 Oeste 0 936.4 -0.6 89
2018-04-27 05:00:00 15 4 Sudoeste 13 Sudoeste 0 936.3 -1.4 85
2018-04-27 04:00:00 14.7 3 Sudoeste 10 Sur 0 936.7 -1.3 78
2018-04-27 03:00:00 14.9 3 Sur 18 Sur 0 937 -1.3 80
2018-04-27 02:00:00 15.2 4 Sur 17 Sur 0 937.7 -0.8 80
2018-04-27 01:00:00 15.3 4 Sur 18 Sur 0 938 -0.4 80
2018-04-27 00:00:00 15.7 5 Sur 23 Sudoeste 0 938.3 0.4 77
2018-04-26 23:00:00 16.7 5 Sur 26 Sudoeste 0 938.5 1 67
2018-04-26 22:00:00 18.2 8 Sur 21 Sur 0 938.4 1 57
2018-04-26 21:00:00 20.8 5 Sur 17 Sudeste 0 937.9 0.2 43
2018-04-26 20:00:00 22.5 6 Sudeste 17 Sudeste 0 937.5 -0.4 38
2018-04-26 19:00:00 23.3 5 Este 17 Sudeste 0 937.4 -0.8 37
2018-04-26 18:00:00 24 6 Sudeste 20 Sur 0 937.7 -1.2 36
2018-04-26 17:00:00 24.1 3 Sudeste 23 Este 0 937.9 -1.5 36
2018-04-26 16:00:00 23.8 3 Este 17 Nordeste 0 938.2 -1.8 43
2018-04-26 15:00:00 22.5 5 Nordeste 15 Norte 0 938.9 -1.3 44
2018-04-26 14:00:00 20.4 4 Nordeste 14 Oeste 0 939.4 -0.9 50
2018-04-26 13:00:00 18.8 2 Nordeste 12 Oeste 0 940 -0.3 53
2018-04-26 12:00:00 17.7 4 Noroeste 16 Oeste 0 940.2 0.3 57
2018-04-26 11:00:00 15.8 4 Nordeste 10 Nordeste 0 940.3 0.6 61
2018-04-26 10:00:00 13 0 Calma 4 Noroeste 0 940.3 1.1 73
2018-04-26 09:00:00 11.1 0 Calma 6 Sudoeste 0 939.9 1 80
2018-04-26 08:00:00 9.9 0 Calma 5 Sudoeste 0 939.7 0.5 82
2018-04-26 07:00:00 9.9 4 Oeste 12 Oeste 0 939.2 -0.3 80
2018-04-26 06:00:00 10.9 0 Calma 7 Oeste 0 938.9 -0.6 75
2018-04-26 05:00:00 11.7 0 Calma 8 Oeste 0 939.2 -0.9 73
2018-04-26 04:00:00 12.6 0 Calma 6 Norte 0 939.5 -0.4 70
2018-04-26 03:00:00 12.7 3 Este 9 Nordeste 0 939.5 -0.9 69
2018-04-26 02:00:00 13.3 0 Calma 9 Nordeste 0 940.1 -0.1 67
2018-04-26 01:00:00 13.9 4 Este 14 Este 0 939.9 0.2 63
2018-04-26 00:00:00 14.4 6 Este 13 Este 0 940.4 1.6 61
2018-04-25 23:00:00 15.1 5 Este 14 Sudeste 0 940.2 1.7 58
2018-04-25 22:00:00 16.3 5 Nordeste 18 Nordeste 0 939.7 1.8 52
2018-04-25 21:00:00 17.5 5 Nordeste 20 Este 0 938.8 0.8 47
2018-04-25 20:00:00 18.8 8 Nordeste 23 Este 0 938.5 0.6 41
2018-04-25 19:00:00 20.4 8 Este 28 Este 0 937.9 -0.4 38
2018-04-25 18:00:00 20.5 12 Nordeste 31 Nordeste 0 938 -0.3 35
2018-04-25 17:00:00 23.1 9 Este 29 Este 0 937.9 -0.9 32
2018-04-25 16:00:00 23.3 11 Este 28 Este 0 938.3 -1.5 33
2018-04-25 15:00:00 22.8 8 Nordeste 25 Este 0 938.3 -1.4 33
2018-04-25 14:00:00 22.3 8 Nordeste 22 Nordeste 0 938.8 -0.5 34
2018-04-25 13:00:00 20.6 3 Nordeste 13 Nordeste 0 939.8 0.2 47
2018-04-25 12:00:00 18.2 6 Este 17 Este 0 939.7 0 53
2018-04-25 11:00:00 15.7 4 Nordeste 9 Este 0 939.3 -0.2 63
2018-04-25 10:00:00 12.9 0 Calma 6 Noroeste 0 939.6 0.1 70
2018-04-25 09:00:00 11.3 0 Calma 6 Oeste 0 939.7 0.6 79
2018-04-25 08:00:00 10.7 0 Calma 4 Oeste 0 939.5 1.1 79
2018-04-25 07:00:00 10.5 0 Calma 4 Nordeste 0 939.5 0.3 77
2018-04-25 06:00:00 10.4 0 Calma 5 Nordeste 0 939.1 -0.4 76
2018-04-25 05:00:00 10.6 0 Calma 6 Norte 0 938.4 -2.2 76
2018-04-25 04:00:00 11 0 Calma 5 Este 0 939.2 -1.2 74
2018-04-25 03:00:00 11.1 0 Calma 7 Nordeste 0 939.5 -0.2 73
2018-04-25 02:00:00 12 0 Calma 10 Sur 0 940.6 0.9 70
2018-04-25 01:00:00 12.4 0 Calma 5 Oeste 0 940.4 1 67
2018-04-25 00:00:00 13 3 Nordeste 14 Nordeste 0 939.7 0.7 63
2018-04-24 23:00:00 14 6 Este 12 Nordeste 0 939.7 1.1 60
2018-04-24 22:00:00 15 4 Nordeste 22 Este 0 939.4 1.3 55
2018-04-24 21:00:00 16.3 12 Este 23 Este 0 939 1.2 49
2018-04-24 20:00:00 18.7 7 Nordeste 32 Este 0 938.6 0.4 46
2018-04-24 19:00:00 20.5 10 Nordeste 34 Este 0 938.1 -0.8 43
2018-04-24 18:00:00 21.4 11 Nordeste 33 Este 0 937.8 -1.4 38
2018-04-24 17:00:00 22.4 10 Nordeste 28 Este 0 938.2 -1.4 35
2018-04-24 16:00:00 23.7 10 Este 31 Este 0 938.9 -1.2 33
2018-04-24 15:00:00 23.6 12 Este 33 Nordeste 0 939.2 -0.8 33
2018-04-24 14:00:00 23.1 10 Este 31 Este 0 939.6 -0.3 34
2018-04-24 13:00:00 22.7 6 Este 30 Este 0 940.1 0.2 37
2018-04-24 12:00:00 19.1 0 Calma 13 Este 0 940 0.9 53
2018-04-24 11:00:00 16.4 4 Nordeste 13 Sudeste 0 939.9 0.9 59
2018-04-24 10:00:00 13.9 0 Calma 12 Sudoeste 0 939.9 0.8 67
2018-04-24 09:00:00 12.9 3 Nordeste 10 Este 0 939.1 0 68
2018-04-24 08:00:00 12.2 2 Nordeste 9 Norte 0 939 -0.4 69
2018-04-24 07:00:00 11.6 0 Calma 8 Nordeste 0 939.1 -1.1 72
2018-04-24 06:00:00 11.5 4 Nordeste 14 Este 0 939.1 -1.7 72
2018-04-24 05:00:00 12.2 3 Nordeste 8 Nordeste 0 939.4 -0.8 67
2018-04-24 04:00:00 13 0 Calma 8 Nordeste 0 940.2 -0.2 63
2018-04-24 03:00:00 13.1 0 Calma 6 Oeste 0 940.8 -0.2 60
2018-04-24 02:00:00 12.9 2 Nordeste 14 Nordeste 0 940.2 -0.6 60
2018-04-24 01:00:00 13.1 0 Calma 7 Norte 0 940.4 0.2 55
2018-04-24 00:00:00 14.1 0 Calma 4 Oeste 0 941 2 50